Aérodrome :
LOGIN :

S'inscrire | Disclaimer

   EN    FR    IT 

 










Légende :    VFR   VFR Marginal   IFR   IFR Intensif   IFR Très Intensif
Visi : 
Plafond : 
>= 8 km
>= 3000ft
5 à 8 km
1000 à 3000 ft
1500m à 5 km
500 à 1000 ft
800 à 1500m
200 à 500 ft
< 800m
< 200 ft
Symboles :   Orages  Brouillard  Fortes neiges  Fortes précipitations  Vent > 20 kt
SIGMETs :   Divers  Orages  Givrage  Turbulence  Onde Orograph.  Cendres Volcan.







- Altitude de l'aérodrome : 699 ft
- Code IATA : PAD


EDLP - Paderborn Lippstadt

DERNIER METAR :
  • 241220Z 28004KT 230V320 4500 BR BKN004 07/07 Q1009

METARs EXPIRÉS :
  • 241150Z 29004KT 250V320 5000 -DZ BKN003 07/07 Q1009
  • 241120Z 32005KT 5000 -DZ BKN003 07/07 Q1009
  • 241050Z 27003KT 220V320 6000 -RA BKN003 07/07 Q1008
  • 241020Z 27004KT 230V320 6000 -RA BKN004 07/07 Q1008
  • 240950Z VRB02KT 4000 -RA BR BKN004 07/07 Q1008

TAF TAF EDLP
Valide du 24 à 12h jusqu'au 25 à 12h UTC


241100Z 2412/2512 27005KT 4000 -RA BKN004
TEMPO 2412/2501 9999 BKN020
BECMG 2416/2419 VRB03KT
TEMPO 2506/2512 1000 RA OVC001
Pas de NOTAMs connus pour ce terrain.



MET'MAP, la Météo Aéronautique d'un coup d'oeil ! - Copyright ORBIFLY Décembre 2007 - Disclaimer

ORBIFLY MET'MAP TEAM :

Programmation & Développement : Alexandra Zaïnal
Conception & Développement : Baudouin d'Aumeries
Co-Programmation & Développement : Marc-Olivier Méhu
Soutien technique & logistique : Manuel Goepfert

Contact : metmap@orbifly.com




SOURCES & CREDITS :

   NOAA